sensor_id;sensor_type;location;lat;lon;timestamp;P1;durP1;ratioP1;P2;durP2;ratioP2
75793;SDS011;64418;47.536;19.074;2023-05-10T00:01:38;2.53;;;1.30;;
75793;SDS011;64418;47.536;19.074;2023-05-10T00:04:05;5.40;;;1.83;;
75793;SDS011;64418;47.536;19.074;2023-05-10T00:06:31;3.30;;;1.75;;
75793;SDS011;64418;47.536;19.074;2023-05-10T00:08:57;3.43;;;1.67;;
75793;SDS011;64418;47.536;19.074;2023-05-10T00:11:26;2.20;;;1.65;;
75793;SDS011;64418;47.536;19.074;2023-05-10T00:13:52;4.68;;;1.90;;
75793;SDS011;64418;47.536;19.074;2023-05-10T00:16:21;5.10;;;2.00;;
75793;SDS011;64418;47.536;19.074;2023-05-10T00:18:47;2.40;;;1.70;;
75793;SDS011;64418;47.536;19.074;2023-05-10T00:21:17;3.33;;;1.50;;
75793;SDS011;64418;47.536;19.074;2023-05-10T00:23:47;3.75;;;1.70;;
75793;SDS011;64418;47.536;19.074;2023-05-10T00:26:12;4.30;;;1.92;;
75793;SDS011;64418;47.536;19.074;2023-05-10T00:28:38;2.70;;;1.87;;
75793;SDS011;64418;47.536;19.074;2023-05-10T00:31:04;3.12;;;1.73;;
75793;SDS011;64418;47.536;19.074;2023-05-10T00:33:29;3.50;;;1.73;;
75793;SDS011;64418;47.536;19.074;2023-05-10T00:35:55;2.67;;;1.70;;
75793;SDS011;64418;47.536;19.074;2023-05-10T00:38:25;3.47;;;1.80;;
75793;SDS011;64418;47.536;19.074;2023-05-10T00:40:51;4.85;;;2.00;;
75793;SDS011;64418;47.536;19.074;2023-05-10T00:43:20;5.28;;;2.17;;
75793;SDS011;64418;47.536;19.074;2023-05-10T00:45:46;2.53;;;1.90;;
75793;SDS011;64418;47.536;19.074;2023-05-10T00:48:12;3.87;;;2.30;;
75793;SDS011;64418;47.536;19.074;2023-05-10T00:50:38;3.53;;;1.90;;
75793;SDS011;64418;47.536;19.074;2023-05-10T00:53:04;3.28;;;2.17;;
75793;SDS011;64418;47.536;19.074;2023-05-10T00:55:31;5.20;;;2.10;;
75793;SDS011;64418;47.536;19.074;2023-05-10T00:57:57;3.17;;;2.10;;
75793;SDS011;64418;47.536;19.074;2023-05-10T01:00:23;2.95;;;2.00;;
75793;SDS011;64418;47.536;19.074;2023-05-10T01:02:50;5.22;;;2.12;;
75793;SDS011;64418;47.536;19.074;2023-05-10T01:05:17;2.87;;;2.00;;
75793;SDS011;64418;47.536;19.074;2023-05-10T01:07:43;3.37;;;2.15;;
75793;SDS011;64418;47.536;19.074;2023-05-10T01:10:09;2.87;;;1.80;;
75793;SDS011;64418;47.536;19.074;2023-05-10T01:12:37;4.50;;;2.17;;
75793;SDS011;64418;47.536;19.074;2023-05-10T01:15:06;2.90;;;1.97;;
75793;SDS011;64418;47.536;19.074;2023-05-10T01:17:33;3.60;;;2.10;;
75793;SDS011;64418;47.536;19.074;2023-05-10T01:20:00;2.92;;;2.05;;
75793;SDS011;64418;47.536;19.074;2023-05-10T01:22:32;4.32;;;2.20;;
75793;SDS011;64418;47.536;19.074;2023-05-10T01:25:13;2.87;;;2.08;;
75793;SDS011;64418;47.536;19.074;2023-05-10T01:28:28;3.37;;;2.30;;
75793;SDS011;64418;47.536;19.074;2023-05-10T01:31:08;3.33;;;2.00;;
75793;SDS011;64418;47.536;19.074;2023-05-10T01:33:48;4.40;;;2.35;;
75793;SDS011;64418;47.536;19.074;2023-05-10T01:36:22;2.90;;;2.00;;
75793;SDS011;64418;47.536;19.074;2023-05-10T01:38:53;4.12;;;2.12;;
75793;SDS011;64418;47.536;19.074;2023-05-10T01:41:24;2.87;;;2.17;;
75793;SDS011;64418;47.536;19.074;2023-05-10T01:44:00;4.07;;;2.22;;
75793;SDS011;64418;47.536;19.074;2023-05-10T01:46:32;5.18;;;2.17;;
75793;SDS011;64418;47.536;19.074;2023-05-10T01:49:02;3.65;;;2.25;;
75793;SDS011;64418;47.536;19.074;2023-05-10T01:51:36;3.58;;;2.05;;
75793;SDS011;64418;47.536;19.074;2023-05-10T01:54:07;2.87;;;2.17;;
75793;SDS011;64418;47.536;19.074;2023-05-10T01:56:36;4.97;;;2.00;;
75793;SDS011;64418;47.536;19.074;2023-05-10T01:59:05;5.82;;;2.45;;
75793;SDS011;64418;47.536;19.074;2023-05-10T02:01:36;3.33;;;2.20;;
75793;SDS011;64418;47.536;19.074;2023-05-10T02:04:05;3.55;;;2.40;;
75793;SDS011;64418;47.536;19.074;2023-05-10T02:06:32;4.40;;;2.30;;
75793;SDS011;64418;47.536;19.074;2023-05-10T02:08:59;3.50;;;2.10;;
75793;SDS011;64418;47.536;19.074;2023-05-10T02:11:26;3.40;;;2.30;;
75793;SDS011;64418;47.536;19.074;2023-05-10T02:13:55;4.18;;;2.47;;
75793;SDS011;64418;47.536;19.074;2023-05-10T02:16:26;3.58;;;2.60;;
75793;SDS011;64418;47.536;19.074;2023-05-10T02:18:52;3.83;;;2.40;;
75793;SDS011;64418;47.536;19.074;2023-05-10T02:21:22;3.30;;;2.20;;
75793;SDS011;64418;47.536;19.074;2023-05-10T02:23:49;4.82;;;2.40;;
75793;SDS011;64418;47.536;19.074;2023-05-10T02:26:17;3.55;;;2.58;;
75793;SDS011;64418;47.536;19.074;2023-05-10T02:28:50;4.55;;;2.10;;
75793;SDS011;64418;47.536;19.074;2023-05-10T02:31:17;3.87;;;2.37;;
75793;SDS011;64418;47.536;19.074;2023-05-10T02:33:43;4.03;;;2.30;;
75793;SDS011;64418;47.536;19.074;2023-05-10T02:36:14;3.30;;;2.40;;
75793;SDS011;64418;47.536;19.074;2023-05-10T02:38:42;3.35;;;2.12;;
75793;SDS011;64418;47.536;19.074;2023-05-10T02:41:09;4.45;;;2.15;;
75793;SDS011;64418;47.536;19.074;2023-05-10T02:43:36;2.80;;;2.20;;
75793;SDS011;64418;47.536;19.074;2023-05-10T02:46:05;3.65;;;2.55;;
75793;SDS011;64418;47.536;19.074;2023-05-10T02:48:32;4.62;;;2.30;;
75793;SDS011;64418;47.536;19.074;2023-05-10T02:50:59;3.50;;;2.30;;
75793;SDS011;64418;47.536;19.074;2023-05-10T02:53:30;4.18;;;2.20;;
75793;SDS011;64418;47.536;19.074;2023-05-10T02:56:00;3.13;;;2.50;;
75793;SDS011;64418;47.536;19.074;2023-05-10T02:58:35;3.33;;;2.28;;
75793;SDS011;64418;47.536;19.074;2023-05-10T03:01:01;3.87;;;2.20;;
75793;SDS011;64418;47.536;19.074;2023-05-10T03:03:30;7.30;;;2.37;;
75793;SDS011;64418;47.536;19.074;2023-05-10T03:05:55;3.03;;;2.33;;
75793;SDS011;64418;47.536;19.074;2023-05-10T03:08:21;3.72;;;2.30;;
75793;SDS011;64418;47.536;19.074;2023-05-10T03:10:54;4.20;;;2.35;;
75793;SDS011;64418;47.536;19.074;2023-05-10T03:13:35;6.27;;;2.70;;
75793;SDS011;64418;47.536;19.074;2023-05-10T03:16:10;4.30;;;2.60;;
75793;SDS011;64418;47.536;19.074;2023-05-10T03:18:42;4.60;;;2.10;;
75793;SDS011;64418;47.536;19.074;2023-05-10T03:21:13;5.80;;;2.72;;
75793;SDS011;64418;47.536;19.074;2023-05-10T03:23:43;4.78;;;2.50;;
75793;SDS011;64418;47.536;19.074;2023-05-10T03:26:15;3.97;;;2.50;;
75793;SDS011;64418;47.536;19.074;2023-05-10T03:28:45;3.30;;;1.97;;
75793;SDS011;64418;47.536;19.074;2023-05-10T03:31:13;3.75;;;2.50;;
75793;SDS011;64418;47.536;19.074;2023-05-10T03:33:48;3.55;;;2.55;;
75793;SDS011;64418;47.536;19.074;2023-05-10T03:36:14;5.35;;;2.65;;
75793;SDS011;64418;47.536;19.074;2023-05-10T03:38:40;4.53;;;2.62;;
75793;SDS011;64418;47.536;19.074;2023-05-10T03:41:06;5.40;;;2.83;;
75793;SDS011;64418;47.536;19.074;2023-05-10T03:43:34;3.63;;;2.53;;
75793;SDS011;64418;47.536;19.074;2023-05-10T03:46:01;3.87;;;2.70;;
75793;SDS011;64418;47.536;19.074;2023-05-10T03:48:27;5.10;;;2.50;;
75793;SDS011;64418;47.536;19.074;2023-05-10T03:50:53;5.50;;;2.80;;
75793;SDS011;64418;47.536;19.074;2023-05-10T03:53:21;4.27;;;2.50;;
75793;SDS011;64418;47.536;19.074;2023-05-10T03:55:47;4.55;;;2.72;;
75793;SDS011;64418;47.536;19.074;2023-05-10T03:58:13;4.82;;;2.78;;
75793;SDS011;64418;47.536;19.074;2023-05-10T04:00:40;5.10;;;3.00;;
75793;SDS011;64418;47.536;19.074;2023-05-10T04:03:09;5.75;;;2.62;;
75793;SDS011;64418;47.536;19.074;2023-05-10T04:05:34;4.85;;;2.53;;
75793;SDS011;64418;47.536;19.074;2023-05-10T04:08:00;5.77;;;2.30;;
75793;SDS011;64418;47.536;19.074;2023-05-10T04:10:26;4.00;;;2.83;;
75793;SDS011;64418;47.536;19.074;2023-05-10T04:12:52;3.67;;;2.77;;
75793;SDS011;64418;47.536;19.074;2023-05-10T04:15:18;4.05;;;2.70;;
75793;SDS011;64418;47.536;19.074;2023-05-10T04:17:46;3.50;;;2.53;;
75793;SDS011;64418;47.536;19.074;2023-05-10T04:20:12;3.90;;;2.67;;
75793;SDS011;64418;47.536;19.074;2023-05-10T04:22:39;4.72;;;2.50;;
75793;SDS011;64418;47.536;19.074;2023-05-10T04:25:05;4.43;;;2.40;;
75793;SDS011;64418;47.536;19.074;2023-05-10T04:27:31;5.12;;;2.60;;
75793;SDS011;64418;47.536;19.074;2023-05-10T04:29:57;3.93;;;2.87;;
75793;SDS011;64418;47.536;19.074;2023-05-10T04:32:23;7.05;;;2.78;;
75793;SDS011;64418;47.536;19.074;2023-05-10T04:34:50;3.92;;;2.78;;
75793;SDS011;64418;47.536;19.074;2023-05-10T04:37:16;5.43;;;3.20;;
75793;SDS011;64418;47.536;19.074;2023-05-10T04:39:42;5.10;;;3.27;;
75793;SDS011;64418;47.536;19.074;2023-05-10T04:42:14;7.07;;;2.78;;
75793;SDS011;64418;47.536;19.074;2023-05-10T04:44:40;4.35;;;2.70;;
75793;SDS011;64418;47.536;19.074;2023-05-10T04:47:06;5.00;;;3.10;;
75793;SDS011;64418;47.536;19.074;2023-05-10T04:49:32;5.73;;;3.20;;
75793;SDS011;64418;47.536;19.074;2023-05-10T04:52:02;5.45;;;3.00;;
75793;SDS011;64418;47.536;19.074;2023-05-10T04:54:27;4.90;;;3.10;;
75793;SDS011;64418;47.536;19.074;2023-05-10T04:56:53;4.80;;;2.87;;
75793;SDS011;64418;47.536;19.074;2023-05-10T04:59:19;4.03;;;2.83;;
75793;SDS011;64418;47.536;19.074;2023-05-10T05:01:44;5.05;;;2.80;;
75793;SDS011;64418;47.536;19.074;2023-05-10T05:04:13;4.67;;;3.40;;
75793;SDS011;64418;47.536;19.074;2023-05-10T05:06:39;4.72;;;2.90;;
75793;SDS011;64418;47.536;19.074;2023-05-10T05:09:06;6.27;;;3.47;;
75793;SDS011;64418;47.536;19.074;2023-05-10T05:11:32;4.82;;;2.80;;
75793;SDS011;64418;47.536;19.074;2023-05-10T05:13:58;8.38;;;3.20;;
75793;SDS011;64418;47.536;19.074;2023-05-10T05:16:24;5.85;;;3.30;;
75793;SDS011;64418;47.536;19.074;2023-05-10T05:18:50;5.17;;;3.30;;
75793;SDS011;64418;47.536;19.074;2023-05-10T05:21:16;4.28;;;3.20;;
75793;SDS011;64418;47.536;19.074;2023-05-10T05:23:43;5.68;;;3.20;;
75793;SDS011;64418;47.536;19.074;2023-05-10T05:26:10;6.20;;;3.50;;
75793;SDS011;64418;47.536;19.074;2023-05-10T05:28:37;11.10;;;3.40;;
75793;SDS011;64418;47.536;19.074;2023-05-10T05:31:06;8.70;;;3.10;;
75793;SDS011;64418;47.536;19.074;2023-05-10T05:33:35;6.30;;;3.45;;
75793;SDS011;64418;47.536;19.074;2023-05-10T05:36:03;4.45;;;3.30;;
75793;SDS011;64418;47.536;19.074;2023-05-10T05:38:30;5.37;;;3.22;;
75793;SDS011;64418;47.536;19.074;2023-05-10T05:40:56;6.23;;;3.57;;
75793;SDS011;64418;47.536;19.074;2023-05-10T05:43:23;6.47;;;3.83;;
75793;SDS011;64418;47.536;19.074;2023-05-10T05:45:49;7.03;;;3.30;;
75793;SDS011;64418;47.536;19.074;2023-05-10T05:48:17;4.70;;;3.03;;
75793;SDS011;64418;47.536;19.074;2023-05-10T05:50:42;8.20;;;3.50;;
75793;SDS011;64418;47.536;19.074;2023-05-10T05:53:08;4.80;;;3.03;;
75793;SDS011;64418;47.536;19.074;2023-05-10T05:55:34;4.90;;;3.28;;
75793;SDS011;64418;47.536;19.074;2023-05-10T05:58:00;7.10;;;3.67;;
75793;SDS011;64418;47.536;19.074;2023-05-10T06:00:27;5.47;;;2.97;;
75793;SDS011;64418;47.536;19.074;2023-05-10T06:02:53;5.03;;;2.78;;
75793;SDS011;64418;47.536;19.074;2023-05-10T06:05:20;7.47;;;3.42;;
75793;SDS011;64418;47.536;19.074;2023-05-10T06:07:45;6.07;;;3.23;;
75793;SDS011;64418;47.536;19.074;2023-05-10T06:10:11;6.03;;;3.42;;
75793;SDS011;64418;47.536;19.074;2023-05-10T06:12:39;5.97;;;3.10;;
75793;SDS011;64418;47.536;19.074;2023-05-10T06:15:05;5.27;;;3.50;;
75793;SDS011;64418;47.536;19.074;2023-05-10T06:17:34;5.62;;;3.08;;
75793;SDS011;64418;47.536;19.074;2023-05-10T06:20:00;4.80;;;3.33;;
75793;SDS011;64418;47.536;19.074;2023-05-10T06:22:26;5.83;;;3.43;;
75793;SDS011;64418;47.536;19.074;2023-05-10T06:24:52;4.62;;;3.10;;
75793;SDS011;64418;47.536;19.074;2023-05-10T06:27:18;6.62;;;3.25;;
75793;SDS011;64418;47.536;19.074;2023-05-10T06:29:43;4.50;;;3.40;;
75793;SDS011;64418;47.536;19.074;2023-05-10T06:32:09;8.13;;;3.87;;
75793;SDS011;64418;47.536;19.074;2023-05-10T06:34:37;9.43;;;3.55;;
75793;SDS011;64418;47.536;19.074;2023-05-10T06:37:03;8.63;;;3.55;;
75793;SDS011;64418;47.536;19.074;2023-05-10T06:39:28;3.83;;;3.13;;
75793;SDS011;64418;47.536;19.074;2023-05-10T06:41:54;6.70;;;3.70;;
75793;SDS011;64418;47.536;19.074;2023-05-10T06:44:20;4.30;;;2.67;;
75793;SDS011;64418;47.536;19.074;2023-05-10T06:46:47;11.60;;;3.67;;
75793;SDS011;64418;47.536;19.074;2023-05-10T06:49:13;7.37;;;2.80;;
75793;SDS011;64418;47.536;19.074;2023-05-10T06:51:40;5.12;;;3.25;;
75793;SDS011;64418;47.536;19.074;2023-05-10T06:54:05;5.95;;;3.78;;
75793;SDS011;64418;47.536;19.074;2023-05-10T06:56:31;6.03;;;3.50;;
75793;SDS011;64418;47.536;19.074;2023-05-10T06:58:57;6.10;;;3.85;;
75793;SDS011;64418;47.536;19.074;2023-05-10T07:01:42;6.13;;;3.40;;
75793;SDS011;64418;47.536;19.074;2023-05-10T07:04:16;7.82;;;3.60;;
75793;SDS011;64418;47.536;19.074;2023-05-10T07:06:45;4.00;;;3.15;;
75793;SDS011;64418;47.536;19.074;2023-05-10T07:09:11;4.28;;;3.08;;
75793;SDS011;64418;47.536;19.074;2023-05-10T07:11:37;4.65;;;3.35;;
75793;SDS011;64418;47.536;19.074;2023-05-10T07:14:03;4.60;;;3.50;;
75793;SDS011;64418;47.536;19.074;2023-05-10T07:16:29;6.50;;;3.55;;
75793;SDS011;64418;47.536;19.074;2023-05-10T07:18:55;5.55;;;3.28;;
75793;SDS011;64418;47.536;19.074;2023-05-10T07:21:24;5.17;;;3.50;;
75793;SDS011;64418;47.536;19.074;2023-05-10T07:23:52;5.30;;;3.55;;
75793;SDS011;64418;47.536;19.074;2023-05-10T07:26:17;7.12;;;3.70;;
75793;SDS011;64418;47.536;19.074;2023-05-10T07:28:43;6.10;;;3.22;;
75793;SDS011;64418;47.536;19.074;2023-05-10T07:31:09;5.70;;;3.70;;
75793;SDS011;64418;47.536;19.074;2023-05-10T07:33:35;6.35;;;3.12;;
75793;SDS011;64418;47.536;19.074;2023-05-10T07:36:03;4.15;;;3.20;;
75793;SDS011;64418;47.536;19.074;2023-05-10T07:38:29;4.82;;;3.30;;
75793;SDS011;64418;47.536;19.074;2023-05-10T07:40:57;4.68;;;3.12;;
75793;SDS011;64418;47.536;19.074;2023-05-10T07:43:27;4.00;;;3.20;;
75793;SDS011;64418;47.536;19.074;2023-05-10T07:45:56;4.18;;;3.03;;
75793;SDS011;64418;47.536;19.074;2023-05-10T07:48:21;5.95;;;3.28;;
75793;SDS011;64418;47.536;19.074;2023-05-10T07:50:47;6.10;;;3.50;;
75793;SDS011;64418;47.536;19.074;2023-05-10T07:53:13;4.20;;;2.72;;
75793;SDS011;64418;47.536;19.074;2023-05-10T07:55:39;4.23;;;2.67;;
75793;SDS011;64418;47.536;19.074;2023-05-10T07:58:06;4.28;;;2.78;;
75793;SDS011;64418;47.536;19.074;2023-05-10T08:00:32;5.40;;;3.37;;
75793;SDS011;64418;47.536;19.074;2023-05-10T08:02:59;4.43;;;3.00;;
75793;SDS011;64418;47.536;19.074;2023-05-10T08:05:24;6.00;;;2.78;;
75793;SDS011;64418;47.536;19.074;2023-05-10T08:07:50;4.15;;;2.97;;
75793;SDS011;64418;47.536;19.074;2023-05-10T08:10:16;3.90;;;2.77;;
75793;SDS011;64418;47.536;19.074;2023-05-10T08:12:42;4.68;;;3.03;;
75793;SDS011;64418;47.536;19.074;2023-05-10T08:15:10;4.55;;;2.60;;
75793;SDS011;64418;47.536;19.074;2023-05-10T08:17:36;4.67;;;2.70;;
75793;SDS011;64418;47.536;19.074;2023-05-10T08:20:02;4.23;;;2.53;;
75793;SDS011;64418;47.536;19.074;2023-05-10T08:22:29;3.85;;;2.45;;
75793;SDS011;64418;47.536;19.074;2023-05-10T08:24:55;4.67;;;2.80;;
75793;SDS011;64418;47.536;19.074;2023-05-10T08:27:20;6.45;;;2.97;;
75793;SDS011;64418;47.536;19.074;2023-05-10T08:29:47;3.42;;;2.50;;
75793;SDS011;64418;47.536;19.074;2023-05-10T08:32:14;4.72;;;2.80;;
75793;SDS011;64418;47.536;19.074;2023-05-10T08:34:43;3.33;;;2.43;;
75793;SDS011;64418;47.536;19.074;2023-05-10T08:37:11;4.00;;;2.20;;
75793;SDS011;64418;47.536;19.074;2023-05-10T08:39:37;6.05;;;2.53;;
75793;SDS011;64418;47.536;19.074;2023-05-10T08:42:04;4.95;;;2.70;;
75793;SDS011;64418;47.536;19.074;2023-05-10T08:44:31;14.43;;;3.05;;
75793;SDS011;64418;47.536;19.074;2023-05-10T08:47:02;4.33;;;2.60;;
75793;SDS011;64418;47.536;19.074;2023-05-10T08:49:32;4.60;;;2.67;;
75793;SDS011;64418;47.536;19.074;2023-05-10T08:51:58;4.45;;;2.55;;
75793;SDS011;64418;47.536;19.074;2023-05-10T08:54:28;4.07;;;2.60;;
75793;SDS011;64418;47.536;19.074;2023-05-10T08:56:54;5.18;;;2.62;;
75793;SDS011;64418;47.536;19.074;2023-05-10T08:59:21;3.37;;;2.40;;
75793;SDS011;64418;47.536;19.074;2023-05-10T09:01:47;3.57;;;2.33;;
75793;SDS011;64418;47.536;19.074;2023-05-10T09:04:14;5.07;;;2.70;;
75793;SDS011;64418;47.536;19.074;2023-05-10T09:06:42;3.78;;;2.22;;
75793;SDS011;64418;47.536;19.074;2023-05-10T09:09:08;3.95;;;2.80;;
75793;SDS011;64418;47.536;19.074;2023-05-10T09:11:34;2.73;;;2.43;;
75793;SDS011;64418;47.536;19.074;2023-05-10T09:14:00;3.47;;;2.70;;
75793;SDS011;64418;47.536;19.074;2023-05-10T09:16:26;2.90;;;2.20;;
75793;SDS011;64418;47.536;19.074;2023-05-10T09:18:52;3.87;;;2.37;;
75793;SDS011;64418;47.536;19.074;2023-05-10T09:21:19;4.53;;;2.30;;
75793;SDS011;64418;47.536;19.074;2023-05-10T09:23:46;5.37;;;2.90;;
75793;SDS011;64418;47.536;19.074;2023-05-10T09:26:15;5.22;;;2.17;;
75793;SDS011;64418;47.536;19.074;2023-05-10T09:28:51;4.50;;;2.37;;
75793;SDS011;64418;47.536;19.074;2023-05-10T09:31:21;2.95;;;2.20;;
75793;SDS011;64418;47.536;19.074;2023-05-10T09:34:08;5.97;;;3.08;;
75793;SDS011;64418;47.536;19.074;2023-05-10T09:36:33;4.50;;;2.20;;
75793;SDS011;64418;47.536;19.074;2023-05-10T09:39:00;4.43;;;2.33;;
75793;SDS011;64418;47.536;19.074;2023-05-10T09:41:27;3.20;;;2.43;;
75793;SDS011;64418;47.536;19.074;2023-05-10T09:43:55;2.70;;;2.03;;
75793;SDS011;64418;47.536;19.074;2023-05-10T09:46:21;5.35;;;2.85;;
75793;SDS011;64418;47.536;19.074;2023-05-10T09:48:48;3.67;;;2.67;;
75793;SDS011;64418;47.536;19.074;2023-05-10T09:51:20;4.28;;;2.30;;
75793;SDS011;64418;47.536;19.074;2023-05-10T09:54:08;4.40;;;2.60;;
75793;SDS011;64418;47.536;19.074;2023-05-10T09:56:37;4.55;;;2.30;;
75793;SDS011;64418;47.536;19.074;2023-05-10T09:59:06;4.22;;;2.30;;
75793;SDS011;64418;47.536;19.074;2023-05-10T10:01:33;3.78;;;2.17;;
75793;SDS011;64418;47.536;19.074;2023-05-10T10:03:59;5.50;;;2.22;;
75793;SDS011;64418;47.536;19.074;2023-05-10T10:06:29;3.13;;;2.10;;
75793;SDS011;64418;47.536;19.074;2023-05-10T10:08:55;3.30;;;2.10;;
75793;SDS011;64418;47.536;19.074;2023-05-10T10:11:22;3.08;;;2.20;;
75793;SDS011;64418;47.536;19.074;2023-05-10T10:13:49;3.00;;;2.10;;
75793;SDS011;64418;47.536;19.074;2023-05-10T10:16:15;3.20;;;1.90;;
75793;SDS011;64418;47.536;19.074;2023-05-10T10:18:44;2.90;;;2.30;;
75793;SDS011;64418;47.536;19.074;2023-05-10T10:21:10;3.30;;;2.20;;
75793;SDS011;64418;47.536;19.074;2023-05-10T10:23:38;3.35;;;2.12;;
75793;SDS011;64418;47.536;19.074;2023-05-10T10:26:05;4.75;;;2.10;;
75793;SDS011;64418;47.536;19.074;2023-05-10T10:28:35;3.10;;;1.80;;
75793;SDS011;64418;47.536;19.074;2023-05-10T10:31:15;2.60;;;1.90;;
75793;SDS011;64418;47.536;19.074;2023-05-10T10:33:54;3.53;;;1.90;;
75793;SDS011;64418;47.536;19.074;2023-05-10T10:36:32;4.25;;;2.30;;
75793;SDS011;64418;47.536;19.074;2023-05-10T10:39:09;3.60;;;1.58;;
75793;SDS011;64418;47.536;19.074;2023-05-10T10:41:39;2.85;;;1.90;;
75793;SDS011;64418;47.536;19.074;2023-05-10T10:47:01;2.90;;;1.80;;
75793;SDS011;64418;47.536;19.074;2023-05-10T10:49:32;8.85;;;1.90;;
75793;SDS011;64418;47.536;19.074;2023-05-10T10:52:21;3.78;;;2.00;;
75793;SDS011;64418;47.536;19.074;2023-05-10T10:54:51;2.35;;;1.60;;
75793;SDS011;64418;47.536;19.074;2023-05-10T10:57:18;2.10;;;1.70;;
75793;SDS011;64418;47.536;19.074;2023-05-10T10:59:46;2.42;;;1.60;;
75793;SDS011;64418;47.536;19.074;2023-05-10T11:08:09;5.43;;;1.65;;
75793;SDS011;64418;47.536;19.074;2023-05-10T11:10:36;3.27;;;1.40;;
75793;SDS011;64418;47.536;19.074;2023-05-10T11:13:04;3.50;;;1.75;;
75793;SDS011;64418;47.536;19.074;2023-05-10T11:15:32;2.28;;;1.50;;
75793;SDS011;64418;47.536;19.074;2023-05-10T11:17:59;2.87;;;1.65;;
75793;SDS011;64418;47.536;19.074;2023-05-10T11:20:41;3.08;;;1.80;;
75793;SDS011;64418;47.536;19.074;2023-05-10T11:23:11;2.70;;;1.60;;
75793;SDS011;64418;47.536;19.074;2023-05-10T11:25:40;2.10;;;1.30;;
75793;SDS011;64418;47.536;19.074;2023-05-10T11:28:10;3.00;;;1.65;;
75793;SDS011;64418;47.536;19.074;2023-05-10T11:30:41;2.10;;;1.50;;
75793;SDS011;64418;47.536;19.074;2023-05-10T11:33:14;4.18;;;1.50;;
75793;SDS011;64418;47.536;19.074;2023-05-10T11:35:41;2.35;;;1.60;;
75793;SDS011;64418;47.536;19.074;2023-05-10T11:38:07;9.67;;;1.70;;
75793;SDS011;64418;47.536;19.074;2023-05-10T11:40:36;2.28;;;1.33;;
75793;SDS011;64418;47.536;19.074;2023-05-10T11:43:03;5.87;;;1.70;;
75793;SDS011;64418;47.536;19.074;2023-05-10T11:45:29;2.22;;;1.48;;
75793;SDS011;64418;47.536;19.074;2023-05-10T11:47:59;3.55;;;1.40;;
75793;SDS011;64418;47.536;19.074;2023-05-10T11:50:25;1.60;;;1.33;;
75793;SDS011;64418;47.536;19.074;2023-05-10T11:52:52;3.55;;;1.70;;
75793;SDS011;64418;47.536;19.074;2023-05-10T11:55:33;3.08;;;1.12;;
75793;SDS011;64418;47.536;19.074;2023-05-10T11:58:00;1.80;;;1.40;;
75793;SDS011;64418;47.536;19.074;2023-05-10T12:00:27;2.30;;;1.58;;
75793;SDS011;64418;47.536;19.074;2023-05-10T12:02:56;2.63;;;1.60;;
75793;SDS011;64418;47.536;19.074;2023-05-10T12:05:23;2.20;;;1.60;;
75793;SDS011;64418;47.536;19.074;2023-05-10T12:07:50;3.10;;;1.60;;
75793;SDS011;64418;47.536;19.074;2023-05-10T12:10:16;2.17;;;1.40;;
75793;SDS011;64418;47.536;19.074;2023-05-10T12:12:51;4.30;;;1.50;;
75793;SDS011;64418;47.536;19.074;2023-05-10T12:15:18;4.37;;;1.67;;
75793;SDS011;64418;47.536;19.074;2023-05-10T12:17:44;3.58;;;1.20;;
75793;SDS011;64418;47.536;19.074;2023-05-10T12:20:17;4.30;;;1.50;;
75793;SDS011;64418;47.536;19.074;2023-05-10T12:22:46;2.10;;;1.50;;
75793;SDS011;64418;47.536;19.074;2023-05-10T12:25:14;2.55;;;1.30;;
75793;SDS011;64418;47.536;19.074;2023-05-10T12:27:40;3.40;;;1.73;;
75793;SDS011;64418;47.536;19.074;2023-05-10T12:30:19;2.55;;;1.37;;
75793;SDS011;64418;47.536;19.074;2023-05-10T12:32:46;2.95;;;1.35;;
75793;SDS011;64418;47.536;19.074;2023-05-10T12:35:12;2.07;;;1.33;;
75793;SDS011;64418;47.536;19.074;2023-05-10T12:37:37;2.22;;;1.40;;
75793;SDS011;64418;47.536;19.074;2023-05-10T12:40:05;2.00;;;1.30;;
75793;SDS011;64418;47.536;19.074;2023-05-10T12:42:32;2.78;;;1.45;;
75793;SDS011;64418;47.536;19.074;2023-05-10T12:44:58;2.20;;;1.52;;
75793;SDS011;64418;47.536;19.074;2023-05-10T12:47:23;2.73;;;1.40;;
75793;SDS011;64418;47.536;19.074;2023-05-10T12:49:49;2.50;;;1.17;;
75793;SDS011;64418;47.536;19.074;2023-05-10T12:52:15;3.70;;;1.50;;
75793;SDS011;64418;47.536;19.074;2023-05-10T12:54:40;2.08;;;1.40;;
75793;SDS011;64418;47.536;19.074;2023-05-10T12:57:08;3.25;;;1.50;;
75793;SDS011;64418;47.536;19.074;2023-05-10T12:59:33;4.07;;;1.37;;
75793;SDS011;64418;47.536;19.074;2023-05-10T13:01:59;3.17;;;1.10;;
75793;SDS011;64418;47.536;19.074;2023-05-10T13:04:25;7.85;;;1.58;;
75793;SDS011;64418;47.536;19.074;2023-05-10T13:06:51;3.47;;;1.40;;
75793;SDS011;64418;47.536;19.074;2023-05-10T13:09:17;2.73;;;1.30;;
75793;SDS011;64418;47.536;19.074;2023-05-10T13:11:43;3.45;;;1.30;;
75793;SDS011;64418;47.536;19.074;2023-05-10T13:14:10;1.77;;;1.05;;
75793;SDS011;64418;47.536;19.074;2023-05-10T13:16:36;3.40;;;1.50;;
75793;SDS011;64418;47.536;19.074;2023-05-10T13:19:02;2.83;;;1.53;;
75793;SDS011;64418;47.536;19.074;2023-05-10T13:21:28;7.15;;;1.52;;
75793;SDS011;64418;47.536;19.074;2023-05-10T13:23:54;1.45;;;1.00;;
75793;SDS011;64418;47.536;19.074;2023-05-10T13:26:19;3.73;;;1.10;;
75793;SDS011;64418;47.536;19.074;2023-05-10T13:28:45;1.70;;;1.00;;
75793;SDS011;64418;47.536;19.074;2023-05-10T13:31:12;2.85;;;1.10;;
75793;SDS011;64418;47.536;19.074;2023-05-10T13:33:38;2.58;;;1.23;;
75793;SDS011;64418;47.536;19.074;2023-05-10T13:36:04;1.50;;;1.07;;
75793;SDS011;64418;47.536;19.074;2023-05-10T13:38:33;1.97;;;1.20;;
75793;SDS011;64418;47.536;19.074;2023-05-10T13:40:59;3.17;;;0.93;;
75793;SDS011;64418;47.536;19.074;2023-05-10T13:43:25;3.08;;;1.25;;
75793;SDS011;64418;47.536;19.074;2023-05-10T13:45:50;3.20;;;1.20;;
75793;SDS011;64418;47.536;19.074;2023-05-10T13:48:20;3.85;;;1.70;;
75793;SDS011;64418;47.536;19.074;2023-05-10T13:50:46;5.78;;;1.65;;
75793;SDS011;64418;47.536;19.074;2023-05-10T13:53:12;1.90;;;1.15;;
75793;SDS011;64418;47.536;19.074;2023-05-10T13:55:38;1.97;;;1.10;;
75793;SDS011;64418;47.536;19.074;2023-05-10T13:58:04;3.05;;;1.50;;
75793;SDS011;64418;47.536;19.074;2023-05-10T14:00:30;2.20;;;1.30;;
75793;SDS011;64418;47.536;19.074;2023-05-10T14:02:56;1.57;;;1.10;;
75793;SDS011;64418;47.536;19.074;2023-05-10T14:05:23;5.00;;;1.42;;
75793;SDS011;64418;47.536;19.074;2023-05-10T14:07:49;3.20;;;1.27;;
75793;SDS011;64418;47.536;19.074;2023-05-10T14:10:16;3.53;;;1.00;;
75793;SDS011;64418;47.536;19.074;2023-05-10T14:12:41;1.83;;;0.93;;
75793;SDS011;64418;47.536;19.074;2023-05-10T14:15:07;1.90;;;1.20;;
75793;SDS011;64418;47.536;19.074;2023-05-10T14:17:34;2.33;;;1.10;;
75793;SDS011;64418;47.536;19.074;2023-05-10T14:20:00;1.87;;;1.17;;
75793;SDS011;64418;47.536;19.074;2023-05-10T14:22:27;2.40;;;1.00;;
75793;SDS011;64418;47.536;19.074;2023-05-10T14:24:53;1.30;;;0.95;;
75793;SDS011;64418;47.536;19.074;2023-05-10T14:27:19;2.00;;;1.10;;
75793;SDS011;64418;47.536;19.074;2023-05-10T14:29:45;1.20;;;1.00;;
75793;SDS011;64418;47.536;19.074;2023-05-10T14:32:10;2.22;;;1.12;;
75793;SDS011;64418;47.536;19.074;2023-05-10T14:34:36;1.77;;;0.90;;
75793;SDS011;64418;47.536;19.074;2023-05-10T14:37:02;3.30;;;1.02;;
75793;SDS011;64418;47.536;19.074;2023-05-10T14:39:29;2.62;;;0.90;;
75793;SDS011;64418;47.536;19.074;2023-05-10T14:41:55;3.27;;;0.80;;
75793;SDS011;64418;47.536;19.074;2023-05-10T14:44:21;4.80;;;1.13;;
75793;SDS011;64418;47.536;19.074;2023-05-10T14:46:47;2.50;;;1.00;;